Terminal Aerodrome Forecast
Issued by NWS

Home | Current Version | Previous Version | Graphics & Text | Print | Product List | Glossary On
Versions: 1 2 3 4 5 6 7 8 9 10 11 12 13 14 15 16 17
000
FTUS43 KICT 210334 AAA
TAFCNU
TAF AMD
KCNU 210334Z 2104/2124 05006KT P6SM VCTS SCT050 OVC080CB
     FM210800 06011KT 6SM SHRA VCTS BKN035CB
     FM211500 06013G20KT 5SM SHRA VCTS OVC020CB
     FM211800 07014G20KT 5SM SHRA OVC015=

USA.gov is the U.S. government's official web portal to all federal, state and local government web resources and services.